Time;durP1;ratioP1;P1;durP2;ratioP2;P2;SDS_P1;SDS_P2;PMS_P1;PMS_P2;Temp;Humidity;BMP_temperature;BMP_pressure;BME280_temperature;BME280_humidity;BME280_pressure;Samples;Min_cycle;Max_cycle;Signal;HPM_P1;HPM_P2
2022/05/09 00:01:53;;;;;;;4.88;3.33;;;11.20;99.90;;;;;;5047969;28;20042;-58
2022/05/09 00:04:19;;;;;;;7.25;2.92;;;11.20;99.90;;;;;;5050051;28;20021;-59
2022/05/09 00:06:46;;;;;;;7.13;3.28;;;11.10;99.90;;;;;;5051682;28;20038;-57
2022/05/09 00:09:12;;;;;;;7.35;3.38;;;11.10;99.90;;;;;;5053529;28;20025;-58
2022/05/09 00:11:37;;;;;;;8.15;2.47;;;11.10;99.90;;;;;;5051465;28;20037;-57
2022/05/09 00:14:03;;;;;;;6.30;3.63;;;11.10;99.90;;;;;;5055964;28;20715;-56
2022/05/09 00:16:33;;;;;;;9.20;2.92;;;11.20;99.90;;;;;;5052682;28;20483;-56
2022/05/09 00:18:59;;;;;;;7.25;3.20;;;11.30;99.90;;;;;;5050688;28;20059;-57
2022/05/09 00:21:25;;;;;;;10.52;3.13;;;11.40;99.90;;;;;;5048443;28;20526;-55
2022/05/09 00:23:51;;;;;;;9.95;3.50;;;11.40;99.90;;;;;;5053633;28;20033;-58
2022/05/09 00:26:17;;;;;;;7.28;3.17;;;11.40;99.90;;;;;;5055153;28;20021;-58
2022/05/09 00:28:43;;;;;;;9.18;3.35;;;11.30;99.90;;;;;;5049230;28;20388;-58
2022/05/09 00:31:08;;;;;;;5.28;3.30;;;11.10;99.90;;;;;;5047916;28;20649;-58
2022/05/09 00:33:34;;;;;;;5.43;3.28;;;11.00;99.90;;;;;;5053552;28;20063;-56
2022/05/09 00:36:00;;;;;;;9.52;2.88;;;11.00;99.90;;;;;;5055873;28;20033;-55
2022/05/09 00:38:26;;;;;;;6.28;3.72;;;10.90;99.90;;;;;;5052607;28;20490;-58
2022/05/09 00:43:38;;;;;;;6.50;3.22;;;10.70;99.90;;;;;;5051918;28;20403;-55
2022/05/09 00:46:05;;;;;;;10.07;3.85;;;10.60;99.90;;;;;;5053715;28;20033;-56
2022/05/09 00:48:30;;;;;;;8.15;3.35;;;10.60;99.90;;;;;;5052042;28;20125;-58
2022/05/09 00:50:57;;;;;;;9.45;4.05;;;10.60;99.90;;;;;;5053018;28;20501;-57
2022/05/09 00:53:25;;;;;;;10.52;3.60;;;10.50;99.90;;;;;;5051450;28;20037;-58
2022/05/09 00:56:01;;;;;;;3.80;3.00;;;10.40;99.90;;;;;;5051675;28;20032;-58
2022/05/09 00:58:26;;;;;;;9.13;3.25;;;10.40;99.90;;;;;;5056639;28;20055;-56
2022/05/09 01:00:54;;;;;;;8.73;3.30;;;10.40;99.90;;;;;;5047853;28;20033;-59
2022/05/09 01:03:47;;;;;;;13.30;4.38;;;10.40;99.90;;;;;;5051084;28;20151;-58
2022/05/09 01:06:13;;;;;;;4.60;3.20;;;10.30;99.90;;;;;;5060561;28;20031;-58
2022/05/09 01:08:38;;;;;;;6.35;3.13;;;10.20;99.90;;;;;;5050472;28;20021;-58
2022/05/09 01:11:10;;;;;;;5.75;3.05;;;10.10;99.90;;;;;;5046536;28;20069;-58
2022/05/09 01:13:41;;;;;;;8.02;3.50;;;10.10;99.90;;;;;;5050176;28;20036;-58
2022/05/09 01:16:08;;;;;;;10.32;3.40;;;10.00;99.90;;;;;;5056364;28;20028;-59
2022/05/09 01:18:34;;;;;;;11.40;3.60;;;10.00;99.90;;;;;;5052807;28;20058;-58
2022/05/09 01:21:00;;;;;;;8.82;3.42;;;10.10;99.90;;;;;;5051124;28;20059;-57
2022/05/09 01:23:31;;;;;;;6.20;3.85;;;10.00;99.90;;;;;;5051233;28;20103;-58
2022/05/09 01:25:57;;;;;;;8.00;3.53;;;10.00;99.90;;;;;;5052921;28;20472;-57
2022/05/09 01:28:23;;;;;;;4.78;3.38;;;10.00;99.90;;;;;;5053242;28;20021;-58
2022/05/09 01:30:51;;;;;;;8.57;3.55;;;9.90;99.90;;;;;;5050015;28;20025;-58
2022/05/09 01:33:30;;;;;;;6.97;3.85;;;9.90;99.90;;;;;;5051477;28;20033;-56
2022/05/09 01:36:06;;;;;;;6.45;3.58;;;9.90;99.90;;;;;;5054190;28;20058;-54
2022/05/09 01:38:53;;;;;;;6.95;3.47;;;9.90;99.90;;;;;;5051458;28;20040;-57
2022/05/09 01:41:19;;;;;;;9.88;3.80;;;9.80;99.90;;;;;;5049801;28;20112;-57
2022/05/09 01:43:51;;;;;;;9.80;3.67;;;9.70;99.90;;;;;;5049722;28;20128;-58
2022/05/09 01:49:29;;;;;;;6.00;3.67;;;9.80;99.90;;;;;;5052547;28;20021;-57
2022/05/09 01:49:30;;;;;;;8.13;3.83;;;9.70;99.90;;;;;;5048813;28;20032;-55
2022/05/09 01:51:57;;;;;;;8.77;3.75;;;9.70;99.90;;;;;;5047213;28;20078;-58
2022/05/09 01:54:22;;;;;;;7.47;3.83;;;9.70;99.90;;;;;;5052099;28;20028;-59
2022/05/09 01:56:48;;;;;;;5.72;3.35;;;9.70;99.90;;;;;;5051148;28;20039;-58
2022/05/09 01:59:14;;;;;;;7.88;4.03;;;9.60;99.90;;;;;;5051699;28;20068;-58
2022/05/09 02:01:55;;;;;;;6.65;3.88;;;9.60;99.90;;;;;;5048211;28;20033;-58
2022/05/09 02:04:22;;;;;;;12.63;4.18;;;9.60;99.90;;;;;;5055673;28;20078;-57
2022/05/09 02:06:48;;;;;;;5.63;3.75;;;9.70;99.90;;;;;;5046898;28;20465;-58
2022/05/09 02:09:13;;;;;;;12.32;3.72;;;9.50;99.90;;;;;;5049041;28;20018;-57
2022/05/09 02:11:39;;;;;;;12.73;3.50;;;9.50;99.90;;;;;;5050555;28;20029;-58
2022/05/09 02:14:05;;;;;;;8.07;3.25;;;9.50;99.90;;;;;;5050179;28;20422;-56
2022/05/09 02:16:32;;;;;;;9.95;4.68;;;9.50;99.90;;;;;;5047688;28;20099;-57
2022/05/09 02:18:57;;;;;;;6.85;3.90;;;9.50;99.90;;;;;;5048172;28;20038;-57
2022/05/09 02:21:23;;;;;;;10.13;3.70;;;9.40;99.90;;;;;;5046781;28;20047;-57
2022/05/09 02:23:49;;;;;;;8.10;4.15;;;9.40;99.90;;;;;;5052537;28;20035;-57
2022/05/09 02:26:14;;;;;;;7.47;3.80;;;9.40;99.90;;;;;;5049217;28;20079;-56
2022/05/09 02:28:40;;;;;;;8.05;3.85;;;9.30;99.90;;;;;;5053648;28;20356;-55
2022/05/09 02:31:06;;;;;;;9.23;4.57;;;9.40;99.90;;;;;;5042802;28;20045;-59
2022/05/09 02:33:32;;;;;;;8.80;4.50;;;9.30;99.90;;;;;;5049216;28;20056;-57
2022/05/09 02:35:57;;;;;;;11.65;4.55;;;9.30;99.90;;;;;;5046067;28;20057;-57
2022/05/09 02:38:24;;;;;;;7.28;3.55;;;9.20;99.90;;;;;;5049665;28;20029;-58
2022/05/09 02:40:51;;;;;;;8.73;4.00;;;9.20;99.90;;;;;;5045442;28;20029;-55
2022/05/09 02:43:17;;;;;;;8.75;4.03;;;9.10;99.90;;;;;;5050405;28;20075;-56
2022/05/09 02:45:43;;;;;;;11.95;4.85;;;9.10;99.90;;;;;;5048765;28;20028;-55
2022/05/09 02:48:10;;;;;;;5.95;4.03;;;9.10;99.90;;;;;;5050157;28;20082;-58
2022/05/09 02:50:35;;;;;;;8.82;3.97;;;9.10;99.90;;;;;;5042206;28;20040;-56
2022/05/09 02:53:01;;;;;;;9.27;4.80;;;9.00;99.90;;;;;;5072097;22;20056;-59
2022/05/09 02:55:27;;;;;;;9.10;4.15;;;9.10;99.90;;;;;;5058929;28;20060;-57
2022/05/09 02:57:52;;;;;;;6.93;3.85;;;9.10;99.90;;;;;;5066721;28;20135;-57
2022/05/09 03:00:21;;;;;;;7.20;4.82;;;9.00;99.90;;;;;;5058752;28;20035;-56
2022/05/09 03:05:33;;;;;;;11.90;4.63;;;8.90;99.90;;;;;;5046986;28;20083;-57
2022/05/09 03:07:59;;;;;;;7.28;3.92;;;9.00;99.90;;;;;;5045583;28;20086;-60
2022/05/09 03:10:28;;;;;;;9.80;4.63;;;8.90;99.90;;;;;;5044340;28;20037;-57
2022/05/09 03:12:56;;;;;;;10.90;5.78;;;8.90;99.90;;;;;;5048801;28;20064;-59
2022/05/09 03:15:22;;;;;;;6.03;4.38;;;8.90;99.90;;;;;;5045597;28;20060;-58
2022/05/09 03:17:47;;;;;;;9.52;4.47;;;8.90;99.90;;;;;;5048653;28;20060;-59
2022/05/09 03:20:13;;;;;;;21.95;4.43;;;8.90;99.90;;;;;;5044371;28;20122;-59
2022/05/09 03:22:38;;;;;;;9.13;5.28;;;8.80;99.90;;;;;;5041876;28;20090;-57
2022/05/09 03:25:04;;;;;;;9.85;4.88;;;8.80;99.90;;;;;;5047300;28;20029;-59
2022/05/09 03:27:30;;;;;;;11.45;4.45;;;8.70;99.90;;;;;;5041041;28;20024;-59
2022/05/09 03:29:55;;;;;;;9.63;4.47;;;8.80;99.90;;;;;;5045574;28;20824;-58
2022/05/09 03:32:21;;;;;;;13.45;4.32;;;8.90;99.90;;;;;;5040690;28;20158;-59
2022/05/09 03:34:46;;;;;;;8.25;4.60;;;8.90;99.90;;;;;;5049275;28;20110;-58
2022/05/09 03:37:12;;;;;;;13.02;4.57;;;9.00;99.90;;;;;;5050886;28;20037;-57
2022/05/09 03:39:38;;;;;;;13.88;5.70;;;8.90;99.90;;;;;;5048640;28;20033;-58
2022/05/09 03:42:06;;;;;;;9.90;4.60;;;8.80;99.90;;;;;;5050101;28;20043;-58
2022/05/09 03:44:31;;;;;;;14.15;5.05;;;8.80;99.90;;;;;;5046604;28;20454;-59
2022/05/09 03:46:57;;;;;;;14.25;5.05;;;8.80;99.90;;;;;;5046685;28;20029;-55
2022/05/09 03:49:22;;;;;;;10.15;5.10;;;8.80;99.90;;;;;;5045805;28;20477;-57
2022/05/09 03:51:48;;;;;;;12.18;5.05;;;8.70;99.90;;;;;;5049934;28;20060;-59
2022/05/09 03:54:14;;;;;;;11.00;4.53;;;8.70;99.90;;;;;;5049144;28;20082;-58
2022/05/09 03:56:39;;;;;;;12.35;4.93;;;8.70;99.90;;;;;;5040914;28;20033;-57
2022/05/09 03:59:05;;;;;;;11.40;5.85;;;8.70;99.90;;;;;;5049977;28;20083;-59
2022/05/09 04:01:30;;;;;;;8.63;5.50;;;8.70;99.90;;;;;;5052479;28;20854;-56
2022/05/09 04:03:56;;;;;;;13.13;6.05;;;8.70;99.90;;;;;;5049613;28;20095;-59
2022/05/09 04:06:22;;;;;;;10.50;5.35;;;8.70;99.90;;;;;;5047601;28;20488;-58
2022/05/09 04:08:47;;;;;;;12.05;6.03;;;8.70;99.90;;;;;;5048186;28;20461;-59
2022/05/09 04:11:13;;;;;;;12.57;5.15;;;8.60;99.90;;;;;;5049926;28;20032;-59
2022/05/09 04:13:38;;;;;;;10.75;5.30;;;8.60;99.90;;;;;;5048071;28;20029;-59
2022/05/09 04:18:52;;;;;;;9.75;5.35;;;8.60;99.90;;;;;;5049367;28;20174;-59
2022/05/09 04:21:17;;;;;;;12.52;5.60;;;8.60;99.90;;;;;;5050124;28;20454;-59
2022/05/09 04:23:43;;;;;;;10.93;5.82;;;8.70;99.90;;;;;;5047132;28;20052;-57
2022/05/09 04:26:10;;;;;;;10.57;5.07;;;8.70;99.90;;;;;;5049706;28;20033;-59
2022/05/09 04:28:36;;;;;;;14.05;5.78;;;8.70;99.90;;;;;;5046157;28;20475;-57
2022/05/09 04:31:01;;;;;;;14.85;4.82;;;8.80;99.90;;;;;;5047474;28;20898;-59
2022/05/09 04:33:27;;;;;;;6.72;5.00;;;8.80;99.90;;;;;;5047094;28;20104;-58
2022/05/09 04:35:54;;;;;;;8.70;5.07;;;8.90;99.90;;;;;;5051627;28;20029;-59
2022/05/09 04:38:23;;;;;;;11.48;4.65;;;8.90;99.90;;;;;;5047735;28;20419;-58
2022/05/09 04:40:51;;;;;;;7.47;4.93;;;8.90;99.90;;;;;;5045540;28;20086;-59
2022/05/09 04:43:26;;;;;;;9.13;4.97;;;8.90;99.90;;;;;;5056312;28;20041;-59
2022/05/09 04:45:52;;;;;;;11.88;6.88;;;8.90;99.90;;;;;;5046080;28;20053;-60
2022/05/09 04:48:19;;;;;;;13.27;5.57;;;8.90;99.90;;;;;;5050838;28;20071;-60
2022/05/09 04:50:45;;;;;;;13.77;6.53;;;8.90;99.90;;;;;;5046887;28;20052;-58
2022/05/09 04:53:11;;;;;;;12.45;5.38;;;8.90;99.90;;;;;;5049126;28;20528;-60
2022/05/09 04:55:37;;;;;;;12.77;5.75;;;9.00;99.90;;;;;;5049933;28;20394;-57
2022/05/09 04:58:04;;;;;;;14.52;5.07;;;9.00;99.90;;;;;;5049556;28;20032;-59
2022/05/09 05:00:31;;;;;;;8.77;5.00;;;9.10;99.90;;;;;;5047625;28;20029;-60
2022/05/09 05:02:56;;;;;;;9.65;5.15;;;9.20;99.90;;;;;;5052491;28;20033;-60
2022/05/09 05:05:24;;;;;;;15.77;6.43;;;9.20;99.90;;;;;;5048654;28;20021;-58
2022/05/09 05:07:50;;;;;;;8.52;5.90;;;9.30;99.90;;;;;;5048172;28;20379;-58
2022/05/09 05:10:16;;;;;;;12.15;5.75;;;9.40;99.90;;;;;;5045976;28;20832;-55
2022/05/09 05:12:42;;;;;;;8.70;4.75;;;9.40;99.90;;;;;;5049106;28;20112;-55
2022/05/09 05:15:09;;;;;;;9.70;4.47;;;9.50;99.90;;;;;;5043381;28;20115;-56
2022/05/09 05:17:37;;;;;;;11.30;4.55;;;9.60;99.90;;;;;;5049001;28;20192;-57
2022/05/09 05:20:04;;;;;;;9.40;5.28;;;9.70;99.90;;;;;;5052396;28;20040;-57
2022/05/09 05:22:35;;;;;;;10.15;4.95;;;9.70;99.90;;;;;;5045134;28;20029;-56
2022/05/09 05:25:00;;;;;;;10.30;5.18;;;9.80;99.90;;;;;;5047207;28;20364;-56
2022/05/09 05:27:26;;;;;;;10.30;5.05;;;9.90;99.90;;;;;;5048455;28;20083;-58
2022/05/09 05:29:55;;;;;;;7.55;4.32;;;10.00;99.90;;;;;;5049205;28;20056;-58
2022/05/09 05:32:27;;;;;;;13.35;4.63;;;10.10;99.90;;;;;;5049446;28;20037;-55
2022/05/09 05:34:52;;;;;;;11.60;4.35;;;10.20;99.90;;;;;;5045176;28;20489;-57
2022/05/09 05:37:18;;;;;;;9.13;4.97;;;10.30;99.90;;;;;;5046144;28;20061;-57
2022/05/09 05:39:46;;;;;;;14.40;4.38;;;10.40;99.90;;;;;;5044658;28;20060;-58
2022/05/09 05:42:15;;;;;;;11.48;4.53;;;10.50;99.90;;;;;;5045003;28;20050;-57
2022/05/09 05:44:40;;;;;;;10.05;4.68;;;10.60;99.90;;;;;;5045885;28;20787;-57
2022/05/09 05:47:08;;;;;;;7.00;4.97;;;10.70;99.90;;;;;;5049687;28;20021;-57
2022/05/09 05:49:35;;;;;;;12.15;5.65;;;10.80;99.90;;;;;;5048809;28;20053;-58
2022/05/09 05:52:03;;;;;;;12.20;5.45;;;10.80;99.90;;;;;;5046136;28;20154;-58
2022/05/09 05:54:30;;;;;;;15.07;5.78;;;10.90;99.90;;;;;;5050587;28;20040;-57
2022/05/09 05:56:56;;;;;;;12.45;6.38;;;11.00;99.90;;;;;;5047265;28;20033;-57
2022/05/09 05:59:22;;;;;;;11.52;5.47;;;11.10;99.90;;;;;;5050553;28;20693;-56
2022/05/09 06:01:49;;;;;;;14.13;6.70;;;11.20;99.90;;;;;;5048135;28;20040;-58
2022/05/09 06:04:14;;;;;;;10.55;5.28;;;11.30;99.90;;;;;;5050728;28;20025;-57
2022/05/09 06:06:40;;;;;;;13.98;6.00;;;11.40;99.90;;;;;;5049556;28;20024;-57
2022/05/09 06:09:05;;;;;;;10.73;5.82;;;11.40;99.90;;;;;;5049790;28;20025;-56
2022/05/09 06:11:31;;;;;;;10.30;5.35;;;11.50;99.90;;;;;;5046982;28;20399;-56
2022/05/09 06:13:57;;;;;;;13.13;5.35;;;11.60;99.90;;;;;;5049795;28;20057;-56
2022/05/09 06:16:22;;;;;;;8.70;4.93;;;11.70;99.90;;;;;;5043567;28;20021;-57
2022/05/09 06:18:52;;;;;;;11.23;4.38;;;11.80;99.90;;;;;;5047183;28;20499;-57
2022/05/09 06:21:18;;;;;;;11.10;5.15;;;11.80;99.90;;;;;;5045182;28;20078;-57
2022/05/09 06:23:43;;;;;;;13.07;4.35;;;11.90;99.90;;;;;;5046976;28;20029;-58
2022/05/09 06:26:09;;;;;;;9.15;4.22;;;12.00;99.90;;;;;;5044146;28;20120;-57
2022/05/09 06:28:34;;;;;;;8.85;4.18;;;12.00;99.90;;;;;;5049199;28;20025;-58
2022/05/09 06:31:01;;;;;;;11.38;3.90;;;12.10;99.90;;;;;;5047020;28;20037;-59
2022/05/09 06:33:27;;;;;;;10.75;3.85;;;12.20;99.90;;;;;;5049051;28;20064;-57
2022/05/09 06:35:53;;;;;;;9.80;3.33;;;12.30;99.90;;;;;;5046789;28;20075;-57
2022/05/09 06:38:19;;;;;;;6.20;2.70;;;12.30;99.90;;;;;;5043666;28;20025;-55
2022/05/09 06:40:45;;;;;;;6.93;2.95;;;12.50;99.90;;;;;;5042785;28;20653;-55
2022/05/09 06:43:11;;;;;;;9.48;3.30;;;12.60;99.90;;;;;;5047168;28;20029;-58
2022/05/09 06:45:37;;;;;;;4.90;2.40;;;12.60;99.90;;;;;;5046999;28;20028;-57
2022/05/09 06:48:03;;;;;;;6.95;2.75;;;12.70;99.90;;;;;;5043709;28;20036;-57
2022/05/09 06:50:32;;;;;;;10.38;3.05;;;12.80;99.90;;;;;;5041825;28;20026;-58
2022/05/09 06:52:58;;;;;;;11.05;2.97;;;12.90;99.90;;;;;;5046319;28;20202;-58
2022/05/09 06:55:25;;;;;;;9.93;2.47;;;12.90;99.90;;;;;;5048117;28;20052;-57
2022/05/09 06:57:50;;;;;;;8.98;2.63;;;13.00;99.90;;;;;;5047046;28;20160;-57
2022/05/09 07:00:20;;;;;;;6.75;3.22;;;13.10;99.90;;;;;;5041324;28;20852;-56
2022/05/09 07:02:45;;;;;;;4.78;2.38;;;13.20;99.90;;;;;;5041935;28;20032;-57
2022/05/09 07:05:15;;;;;;;8.27;2.97;;;13.30;99.90;;;;;;5043393;28;20563;-57
2022/05/09 07:07:41;;;;;;;7.50;2.42;;;13.40;99.90;;;;;;5042423;28;20026;-57
2022/05/09 07:10:07;;;;;;;8.32;3.42;;;13.40;99.90;;;;;;5046424;28;20103;-58
2022/05/09 07:12:41;;;;;;;8.70;2.72;;;13.50;99.90;;;;;;5043781;28;20143;-56
2022/05/09 07:15:07;;;;;;;4.07;2.63;;;13.60;99.90;;;;;;5047844;28;20375;-57
2022/05/09 07:17:33;;;;;;;6.57;2.63;;;13.70;99.90;;;;;;5048438;28;20024;-57
2022/05/09 07:19:58;;;;;;;5.70;2.75;;;13.80;99.90;;;;;;5047737;28;20068;-57
2022/05/09 07:22:24;;;;;;;6.65;2.45;;;13.90;99.90;;;;;;5045117;28;20487;-57
2022/05/09 07:24:49;;;;;;;10.82;2.88;;;14.00;99.90;;;;;;5043882;28;20106;-53
2022/05/09 07:27:15;;;;;;;3.65;2.50;;;14.00;99.90;;;;;;5038425;28;20029;-56
2022/05/09 07:29:41;;;;;;;3.78;2.15;;;14.20;99.90;;;;;;5044062;28;20391;-57
2022/05/09 07:32:07;;;;;;;6.78;3.03;;;14.30;99.90;;;;;;5041786;28;20039;-55
2022/05/09 07:34:33;;;;;;;6.40;2.58;;;14.30;99.90;;;;;;5045755;28;20108;-56
2022/05/09 07:36:58;;;;;;;6.60;2.92;;;14.40;99.90;;;;;;5040276;28;20716;-57
2022/05/09 07:39:24;;;;;;;8.82;2.72;;;14.50;99.90;;;;;;5045322;28;20105;-54
2022/05/09 07:41:49;;;;;;;8.90;1.95;;;14.60;99.90;;;;;;5041218;28;20392;-57
2022/05/09 07:44:15;;;;;;;3.30;1.90;;;14.70;99.90;;;;;;5047797;28;20031;-57
2022/05/09 07:46:41;;;;;;;10.63;2.88;;;14.80;99.90;;;;;;5031648;28;20064;-56
2022/05/09 07:49:06;;;;;;;4.88;2.28;;;15.00;99.90;;;;;;5047590;28;20043;-57
2022/05/09 07:51:34;;;;;;;8.82;2.30;;;15.10;99.90;;;;;;5041110;28;20457;-55
2022/05/09 07:53:59;;;;;;;9.80;2.10;;;15.10;99.90;;;;;;5047276;28;20040;-56
2022/05/09 07:56:25;;;;;;;6.88;1.92;;;15.20;99.90;;;;;;5041842;28;20029;-57
2022/05/09 07:58:50;;;;;;;7.43;2.42;;;15.30;99.90;;;;;;5043474;28;20036;-57
2022/05/09 08:01:16;;;;;;;4.78;2.20;;;15.40;99.90;;;;;;5046505;28;20515;-56
2022/05/09 08:03:42;;;;;;;8.05;2.45;;;15.50;99.90;;;;;;5047847;28;20033;-55
2022/05/09 08:06:08;;;;;;;12.10;2.97;;;15.50;99.90;;;;;;5048043;28;20238;-56
2022/05/09 08:08:38;;;;;;;7.60;2.80;;;15.70;99.90;;;;;;5047651;28;20112;-55
2022/05/09 08:11:04;;;;;;;5.32;1.92;;;15.80;99.90;;;;;;5047644;28;20517;-56
2022/05/09 08:13:33;;;;;;;11.63;2.70;;;15.90;99.90;;;;;;5047432;28;20036;-57
2022/05/09 08:16:00;;;;;;;6.25;3.13;;;16.00;99.90;;;;;;5048075;28;20029;-55
2022/05/09 08:18:26;;;;;;;10.65;2.78;;;16.10;99.90;;;;;;5048512;28;20486;-58
2022/05/09 08:20:53;;;;;;;8.70;2.65;;;16.20;99.90;;;;;;5050387;28;20044;-56
2022/05/09 08:23:19;;;;;;;4.95;2.08;;;16.40;99.90;;;;;;5051020;28;20428;-57
2022/05/09 08:25:48;;;;;;;10.05;2.53;;;16.50;99.90;;;;;;5052008;28;20116;-58
2022/05/09 08:28:15;;;;;;;8.15;2.88;;;16.60;99.90;;;;;;5051050;28;20021;-56
2022/05/09 08:30:41;;;;;;;6.65;2.65;;;16.70;99.90;;;;;;5051368;28;20095;-57
2022/05/09 08:33:15;;;;;;;5.78;3.25;;;16.80;99.90;;;;;;5051197;28;20183;-57
2022/05/09 08:35:43;;;;;;;10.40;2.77;;;16.90;99.90;;;;;;5051719;28;20036;-56
2022/05/09 08:38:09;;;;;;;5.78;2.45;;;17.00;99.90;;;;;;5051355;28;20306;-58
2022/05/09 08:40:45;;;;;;;6.82;3.00;;;17.10;99.90;;;;;;5051460;28;20057;-56
2022/05/09 08:43:28;;;;;;;7.55;2.90;;;17.20;99.90;;;;;;5050573;28;20052;-57
2022/05/09 08:46:43;;;;;;;6.97;2.88;;;17.30;99.90;;;;;;5042887;28;20395;-58
2022/05/09 08:49:19;;;;;;;7.00;2.30;;;17.50;99.90;;;;;;5041763;28;20057;-58
2022/05/09 08:52:18;;;;;;;6.32;2.80;;;17.50;99.90;;;;;;5050486;28;20996;-57
2022/05/09 08:54:44;;;;;;;7.22;2.85;;;17.70;99.90;;;;;;5088576;22;20100;-56
2022/05/09 08:57:15;;;;;;;4.40;2.65;;;17.80;99.90;;;;;;5088208;28;20615;-54
2022/05/09 08:59:47;;;;;;;6.22;2.60;;;17.90;99.90;;;;;;5091631;28;20012;-57
2022/05/09 09:02:31;;;;;;;8.98;3.47;;;18.00;99.90;;;;;;5088687;28;20028;-55
2022/05/09 09:04:58;;;;;;;5.63;2.70;;;18.20;99.90;;;;;;5092018;28;20046;-56
2022/05/09 09:07:36;;;;;;;6.18;2.55;;;18.30;99.90;;;;;;5089558;28;20494;-52
2022/05/09 09:10:07;;;;;;;4.63;2.67;;;18.40;99.90;;;;;;5089729;28;20073;-53
2022/05/09 09:12:41;;;;;;;5.95;3.20;;;18.50;99.90;;;;;;5091188;28;20028;-57
2022/05/09 09:15:43;;;;;;;13.17;2.77;;;18.70;99.90;;;;;;5089502;28;20861;-55
2022/05/09 09:18:32;;;;;;;6.45;3.03;;;18.70;99.90;;;;;;5089228;28;20270;-55
2022/05/09 09:21:09;;;;;;;12.00;3.08;;;18.80;99.90;;;;;;5082395;28;20031;-56
2022/05/09 09:23:40;;;;;;;7.35;3.45;;;18.90;99.90;;;;;;5089977;28;20209;-56
2022/05/09 09:26:43;;;;;;;12.32;4.00;;;19.10;99.90;;;;;;5090965;28;20557;-56
2022/05/09 09:29:15;;;;;;;8.35;4.07;;;19.30;99.90;;;;;;5086215;28;20486;-53
2022/05/09 09:31:54;;;;;;;7.82;2.85;;;19.50;99.90;;;;;;5087188;28;20035;-55
2022/05/09 09:34:40;;;;;;;9.35;2.83;;;19.70;99.90;;;;;;5088584;28;20074;-57
2022/05/09 09:37:13;;;;;;;8.82;3.90;;;19.90;99.90;;;;;;5086333;28;20539;-56
2022/05/09 09:39:39;;;;;;;5.13;3.15;;;20.00;99.90;;;;;;5094040;28;20020;-55
2022/05/09 09:42:06;;;;;;;6.70;3.05;;;20.20;99.90;;;;;;5071868;28;20077;-55
2022/05/09 09:44:34;;;;;;;9.35;3.03;;;20.30;99.90;;;;;;5086906;28;20035;-54
2022/05/09 09:47:03;;;;;;;9.90;2.90;;;20.40;99.90;;;;;;5090516;28;20059;-55
2022/05/09 09:49:29;;;;;;;6.43;3.30;;;20.60;99.90;;;;;;5089704;28;20034;-54
2022/05/09 09:51:55;;;;;;;8.07;3.67;;;20.80;99.90;;;;;;5078890;28;20097;-54
2022/05/09 09:54:24;;;;;;;6.82;3.15;;;21.00;99.90;;;;;;5084350;28;20493;-55
2022/05/09 09:56:50;;;;;;;9.25;3.58;;;21.20;99.90;;;;;;5083467;28;20111;-57
2022/05/09 09:59:21;;;;;;;8.48;3.60;;;21.30;99.90;;;;;;5083750;28;20131;-53
2022/05/09 10:02:16;;;;;;;5.18;3.63;;;21.50;99.90;;;;;;5085623;28;20036;-55
2022/05/09 10:04:42;;;;;;;7.90;3.15;;;21.50;99.90;;;;;;5088715;28;20148;-53
2022/05/09 10:07:12;;;;;;;5.85;3.05;;;21.80;99.90;;;;;;5087650;28;20057;-54
2022/05/09 10:09:44;;;;;;;14.70;4.65;;;22.00;99.90;;;;;;5087217;28;20032;-56
2022/05/09 10:12:26;;;;;;;6.35;3.17;;;22.30;99.90;;;;;;5085787;28;20109;-57
2022/05/09 10:14:52;;;;;;;11.00;4.13;;;22.30;99.90;;;;;;5080494;28;20028;-58
2022/05/09 10:17:33;;;;;;;8.18;5.15;;;22.30;99.90;;;;;;5082917;28;20039;-56
2022/05/09 10:20:00;;;;;;;12.25;4.20;;;22.40;99.90;;;;;;5084667;28;20415;-55
2022/05/09 10:25:28;;;;;;;6.32;3.05;;;22.90;99.90;;;;;;5082406;28;20120;-56
2022/05/09 10:28:21;;;;;;;7.25;3.33;;;23.00;99.90;;;;;;5083695;28;20039;-55
2022/05/09 10:30:51;;;;;;;6.55;3.13;;;23.40;99.90;;;;;;5085736;28;20040;-57
2022/05/09 10:33:34;;;;;;;6.57;3.80;;;23.40;99.90;;;;;;5081766;28;20020;-58
2022/05/09 10:36:08;;;;;;;5.70;3.70;;;23.50;99.90;;;;;;5084120;28;20028;-52
2022/05/09 10:38:52;;;;;;;6.82;3.25;;;23.50;99.90;;;;;;5082742;28;20035;-56
2022/05/09 10:41:57;;;;;;;4.82;3.00;;;23.60;99.90;;;;;;5082729;28;20032;-59
2022/05/09 10:44:34;;;;;;;6.43;3.85;;;24.00;99.90;;;;;;5063973;28;20565;-57
2022/05/09 10:47:05;;;;;;;8.02;4.80;;;24.10;99.90;;;;;;5086944;28;20481;-56
2022/05/09 10:49:45;;;;;;;7.40;3.63;;;24.40;99.90;;;;;;5081851;28;20103;-58
2022/05/09 10:52:44;;;;;;;7.53;3.50;;;24.60;99.90;;;;;;5084440;28;20099;-53
2022/05/09 10:55:15;;;;;;;9.25;3.63;;;24.50;99.90;;;;;;5088092;28;20079;-54
2022/05/09 10:57:55;;;;;;;6.85;4.10;;;24.60;99.90;;;;;;5066278;28;20055;-59
2022/05/09 11:00:24;;;;;;;6.35;3.45;;;24.40;99.90;;;;;;5083150;28;20422;-56
2022/05/09 11:03:05;;;;;;;5.22;2.95;;;24.50;99.90;;;;;;5088202;28;20553;-59
2022/05/09 11:05:57;;;;;;;5.13;4.00;;;24.40;99.90;;;;;;5083579;28;20043;-51
2022/05/09 11:08:59;;;;;;;8.45;3.30;;;24.90;99.90;;;;;;5076315;28;20032;-54
2022/05/09 11:11:46;;;;;;;8.13;3.55;;;25.00;99.90;;;;;;5078675;28;20043;-53
2022/05/09 11:14:21;;;;;;;6.45;3.60;;;25.00;99.90;;;;;;5080687;28;20066;-55
2022/05/09 11:17:12;;;;;;;6.82;2.92;;;25.20;99.90;;;;;;5087248;28;20057;-57
2022/05/09 11:19:53;;;;;;;5.78;3.30;;;25.50;99.90;;;;;;5088017;28;20028;-54
2022/05/09 11:22:43;;;;;;;3.35;3.05;;;25.50;99.90;;;;;;5082890;28;20055;-55
2022/05/09 11:25:32;;;;;;;9.05;3.88;;;25.70;99.90;;;;;;5079315;28;20055;-56
2022/05/09 11:28:09;;;;;;;6.93;3.72;;;25.40;99.90;;;;;;5087533;28;20169;-56
2022/05/09 11:30:45;;;;;;;5.43;3.45;;;25.50;99.90;;;;;;5083512;28;20023;-55
2022/05/09 11:33:41;;;;;;;5.32;3.10;;;25.70;99.90;;;;;;5081720;28;20592;-54
2022/05/09 11:36:48;;;;;;;5.50;3.33;;;25.80;99.90;;;;;;5079614;28;20530;-55
2022/05/09 11:39:47;;;;;;;6.53;3.03;;;25.80;99.90;;;;;;5079687;28;20058;-53
2022/05/09 11:45:45;;;;;;;8.48;3.20;;;26.00;99.90;;;;;;5082617;28;20034;-56
2022/05/09 11:48:31;;;;;;;6.95;4.10;;;25.80;99.90;;;;;;5085052;28;20114;-58
2022/05/09 11:51:14;;;;;;;5.35;3.78;;;25.80;99.90;;;;;;5081909;28;20043;-56
2022/05/09 11:53:44;;;;;;;3.70;2.55;;;25.40;99.90;;;;;;5086340;28;20032;-56
2022/05/09 11:56:10;;;;;;;5.53;3.03;;;25.80;99.90;;;;;;5091219;28;20486;-55
2022/05/09 11:58:43;;;;;;;4.10;2.63;;;25.90;99.90;;;;;;5088394;28;20062;-57
2022/05/09 12:01:09;;;;;;;4.68;2.92;;;26.30;99.90;;;;;;5083438;28;20036;-56
2022/05/09 12:03:40;;;;;;;4.88;3.38;;;26.50;99.90;;;;;;5087774;28;20031;-57
2022/05/09 12:06:26;;;;;;;3.00;2.53;;;26.70;99.90;;;;;;5089201;28;20028;-59
2022/05/09 12:08:53;;;;;;;3.67;2.75;;;26.60;99.90;;;;;;5087467;28;20071;-59
2022/05/09 12:11:23;;;;;;;5.70;2.97;;;26.80;99.90;;;;;;5091405;28;20024;-56
2022/05/09 12:13:54;;;;;;;8.02;2.80;;;27.00;99.90;;;;;;5082488;28;20032;-57
2022/05/09 12:16:40;;;;;;;4.00;2.63;;;26.80;99.90;;;;;;5086484;28;20027;-56
2022/05/09 12:19:28;;;;;;;3.65;2.70;;;27.00;99.90;;;;;;5091680;28;20428;-57
2022/05/09 12:22:31;;;;;;;4.97;3.30;;;27.40;99.90;;;;;;5072669;28;20024;-55
2022/05/09 12:24:57;;;;;;;5.65;3.60;;;26.80;98.90;;;;;;5085697;28;20089;-58
2022/05/09 12:28:03;;;;;;;9.13;3.20;;;27.40;98.60;;;;;;5085446;28;20058;-58
2022/05/09 12:30:39;;;;;;;3.38;3.08;;;27.10;99.40;;;;;;5087140;28;20633;-54
2022/05/09 12:33:17;;;;;;;4.28;2.72;;;27.20;99.00;;;;;;5086420;28;20062;-56
2022/05/09 12:35:43;;;;;;;3.83;2.45;;;27.10;96.10;;;;;;5088592;28;20095;-54
2022/05/09 12:38:13;;;;;;;4.05;2.33;;;27.20;95.30;;;;;;5089604;28;20023;-53
2022/05/09 12:40:38;;;;;;;5.22;2.40;;;27.20;97.60;;;;;;5088119;28;20092;-53
2022/05/09 12:43:07;;;;;;;4.43;2.70;;;27.60;96.80;;;;;;5089952;28;20477;-57
2022/05/09 12:45:33;;;;;;;5.68;2.30;;;27.40;98.20;;;;;;5086077;28;20161;-56
2022/05/09 12:48:00;;;;;;;3.35;2.13;;;27.50;95.70;;;;;;5085378;28;20025;-57
2022/05/09 12:50:34;;;;;;;4.53;2.58;;;27.60;94.40;;;;;;5090117;28;20039;-56
2022/05/09 12:53:06;;;;;;;;;;;27.50;98.20;;;;;;5090218;28;20161;-55
2022/05/09 12:55:57;;;;;;;4.40;2.60;;;27.40;99.10;;;;;;5091901;28;19919;-58
2022/05/09 12:58:32;;;;;;;5.40;2.30;;;27.70;96.90;;;;;;5090177;28;20028;-58
2022/05/09 13:01:27;;;;;;;3.63;2.83;;;28.00;95.30;;;;;;5090050;28;20047;-55
2022/05/09 13:03:58;;;;;;;3.28;2.42;;;27.90;94.60;;;;;;5082457;28;20115;-55
2022/05/09 13:06:27;;;;;;;7.28;2.30;;;28.00;93.70;;;;;;5089339;28;20036;-57
2022/05/09 13:08:53;;;;;;;3.22;2.67;;;28.20;95.00;;;;;;5086080;28;20092;-58
2022/05/09 13:11:26;;;;;;;3.63;2.40;;;28.20;94.90;;;;;;5087106;28;20481;-57
2022/05/09 13:14:04;;;;;;;4.97;2.63;;;28.20;94.50;;;;;;5091205;28;20048;-53
2022/05/09 13:16:37;;;;;;;4.35;2.55;;;28.20;94.20;;;;;;5087750;28;20031;-59
2022/05/09 13:19:03;;;;;;;2.53;2.33;;;27.70;93.40;;;;;;5090942;28;20024;-59
2022/05/09 13:21:37;;;;;;;4.85;2.58;;;28.00;95.10;;;;;;5091150;28;20081;-57